Time;durP1;ratioP1;P1;durP2;ratioP2;P2;SDS_P1;SDS_P2;PMS_P1;PMS_P2;Temp;Humidity;BMP_temperature;BMP_pressure;BME280_temperature;BME280_humidity;BME280_pressure;Samples;Min_cycle;Max_cycle;Signal;HPM_P1;HPM_P2
2023/02/12 00:07:39;;;;;;;14.80;9.40;;;;;;;2.88;100.00;100693.80;446800;1253;195548;-71
2023/02/12 00:17:45;;;;;;;14.80;8.50;;;;;;;2.69;100.00;100698.38;448435;1252;143529;-71
2023/02/12 00:27:50;;;;;;;14.90;8.30;;;;;;;2.53;100.00;100707.74;450192;1251;143410;-72
2023/02/12 00:37:56;;;;;;;11.40;6.20;;;;;;;2.32;100.00;100725.10;450999;1251;142537;-72
2023/02/12 00:48:02;;;;;;;6.70;4.40;;;;;;;1.94;100.00;100749.87;451042;1251;142654;-72
2023/02/12 00:58:09;;;;;;;7.90;3.10;;;;;;;1.71;100.00;100783.55;439968;1253;143088;-70
2023/02/12 01:08:16;;;;;;;3.10;2.70;;;;;;;1.35;100.00;100807.30;450979;1253;141882;-71
2023/02/12 01:18:22;;;;;;;8.80;2.50;;;;;;;0.84;100.00;100824.44;451060;1249;141376;-71
2023/02/12 01:28:28;;;;;;;3.40;1.90;;;;;;;0.24;100.00;100850.45;450330;1250;141893;-71
2023/02/12 01:38:34;;;;;;;5.30;3.10;;;;;;;-0.08;100.00;100860.11;440414;1253;142389;-71
2023/02/12 01:48:42;;;;;;;4.00;2.40;;;;;;;-0.39;100.00;100875.21;436619;1253;142402;-71
2023/02/12 01:58:51;;;;;;;3.20;2.50;;;;;;;-0.84;100.00;100891.59;437472;1253;142159;-70
2023/02/12 02:08:58;;;;;;;4.30;3.20;;;;;;;-1.16;100.00;100902.27;436895;1251;141418;-71
2023/02/12 02:19:10;;;;;;;4.70;3.60;;;;;;;-1.26;100.00;100909.09;450304;1251;142124;-71
2023/02/12 02:29:53;;;;;;;4.00;2.60;;;;;;;-0.99;100.00;100914.05;451083;1251;141837;-71
2023/02/12 02:40:05;;;;;;;4.30;3.10;;;;;;;-0.73;100.00;100937.55;441897;1251;141609;-71
2023/02/12 02:50:15;;;;;;;10.80;6.40;;;;;;;-0.61;100.00;100962.38;437332;1253;142111;-70
2023/02/12 03:00:26;;;;;;;9.20;4.90;;;;;;;-0.63;100.00;100989.54;451025;1251;143166;-69
2023/02/12 03:10:36;;;;;;;3.80;2.70;;;;;;;-0.68;100.00;101009.13;450262;1251;208583;-69
2023/02/12 03:20:47;;;;;;;2.30;1.90;;;;;;;-0.70;100.00;101020.63;450899;1251;142236;-69
2023/02/12 03:30:59;;;;;;;3.30;3.00;;;;;;;-0.75;100.00;101036.60;450330;1249;142116;-69
2023/02/12 03:41:11;;;;;;;3.30;3.00;;;;;;;-0.73;100.00;101038.68;451112;1250;142388;-69
2023/02/12 03:51:23;;;;;;;4.50;4.00;;;;;;;-0.68;100.00;101063.98;451110;1250;142519;-69
2023/02/12 04:01:30;;;;;;;5.70;3.80;;;;;;;-0.66;100.00;101079.65;450319;1251;142314;-69
2023/02/12 04:11:41;;;;;;;;;;;;;;;-0.65;100.00;101089.29;450993;1249;141842;-69
2023/02/12 04:21:58;;;;;;;5.30;3.90;;;;;;;-0.66;100.00;101103.56;450587;1250;128669;-69
2023/02/12 04:32:11;;;;;;;4.70;3.40;;;;;;;-0.65;99.88;101115.60;451125;1250;141957;-69
2023/02/12 04:42:18;;;;;;;5.80;3.80;;;;;;;-0.69;99.55;101137.92;437612;1251;142111;-69
2023/02/12 04:52:23;;;;;;;4.60;3.00;;;;;;;-0.80;98.77;101155.04;442083;1250;141798;-70
2023/02/12 05:02:29;;;;;;;3.40;2.80;;;;;;;-0.93;98.04;101169.21;451260;1249;141905;-68
2023/02/12 05:12:35;;;;;;;4.50;3.20;;;;;;;-0.97;97.63;101166.77;450430;1250;142880;-68
2023/02/12 05:22:41;;;;;;;3.70;3.30;;;;;;;-0.96;97.62;101177.60;451020;1250;142387;-68
2023/02/12 05:32:47;;;;;;;3.20;2.30;;;;;;;-1.00;96.93;101189.61;451148;1249;142133;-68
2023/02/12 05:42:53;;;;;;;2.50;1.70;;;;;;;-1.02;96.66;101200.08;450486;1250;141771;-68
2023/02/12 05:53:01;;;;;;;3.60;1.90;;;;;;;-0.98;96.50;101215.23;451267;1250;141899;-69
2023/02/12 06:03:07;;;;;;;3.30;1.40;;;;;;;-0.96;96.11;101228.50;451350;1250;141968;-70
2023/02/12 06:13:13;;;;;;;2.20;2.00;;;;;;;-0.92;95.96;101240.75;450528;1249;145731;-68
2023/02/12 06:23:18;;;;;;;4.60;3.90;;;;;;;-0.86;95.63;101265.73;451252;1250;142985;-69
2023/02/12 06:33:25;;;;;;;5.70;2.50;;;;;;;-0.83;95.27;101283.98;451259;1249;143596;-67
2023/02/12 06:43:31;;;;;;;1.70;1.60;;;;;;;-0.80;94.70;101287.98;450458;1249;142929;-68
2023/02/12 06:53:36;;;;;;;1.40;1.30;;;;;;;-0.76;94.26;101301.95;451196;1249;142794;-68
2023/02/12 07:03:43;;;;;;;2.30;1.90;;;;;;;-0.55;94.27;101330.54;450457;1249;141790;-69
2023/02/12 07:13:48;;;;;;;;;;;;;;;-0.29;94.29;101347.30;449274;1250;141616;-68
2023/02/12 07:23:54;;;;;;;1.90;1.80;;;;;;;-0.08;93.73;101351.96;444850;1250;127142;-68
2023/02/12 07:34:01;;;;;;;3.10;2.30;;;;;;;0.11;93.33;101351.77;439647;1250;142574;-69
2023/02/12 07:44:11;;;;;;;3.90;2.70;;;;;;;0.39;92.63;101358.33;451314;1249;142213;-69
2023/02/12 07:54:17;;;;;;;2.50;1.90;;;;;;;1.74;92.93;101372.84;451299;1249;143139;-69
2023/02/12 08:04:25;;;;;;;5.30;2.60;;;;;;;3.22;89.92;101386.77;450498;1249;142089;-68
2023/02/12 08:14:31;;;;;;;3.00;2.40;;;;;;;2.96;88.49;101392.91;446121;1250;141176;-69
2023/02/12 08:24:37;;;;;;;2.90;2.00;;;;;;;4.75;89.23;101384.85;444014;1249;167554;-69
2023/02/12 08:34:43;;;;;;;2.20;1.90;;;;;;;6.26;84.48;101386.42;451270;1249;141763;-70
2023/02/12 08:44:49;;;;;;;4.60;2.70;;;;;;;5.48;82.87;101382.22;451350;1249;142446;-70
2023/02/12 08:54:55;;;;;;;2.70;1.70;;;;;;;4.75;82.24;101389.05;450533;1249;141650;-69
2023/02/12 09:05:01;;;;;;;2.30;2.10;;;;;;;4.45;81.77;101406.52;448926;1249;141851;-68
2023/02/12 09:15:08;;;;;;;2.60;2.40;;;;;;;5.07;81.97;101409.29;450969;1248;142654;-70
2023/02/12 09:25:14;;;;;;;2.90;2.60;;;;;;;12.18;79.41;101405.00;450297;1250;141289;-69
2023/02/12 09:35:20;;;;;;;3.00;2.10;;;;;;;16.98;72.07;101401.52;450916;1249;141522;-69
2023/02/12 09:45:31;;;;;;;1.60;1.50;;;;;;;14.59;66.83;101423.23;450951;1250;141612;-71
2023/02/12 09:55:38;;;;;;;2.90;2.50;;;;;;;10.01;66.64;101433.27;450721;1250;206141;-68
2023/02/12 10:05:48;;;;;;;4.20;3.00;;;;;;;7.31;67.44;101434.09;451113;1249;141259;-69
2023/02/12 10:16:02;;;;;;;3.60;3.30;;;;;;;6.37;68.15;101433.39;450219;1250;140907;-70
2023/02/12 10:26:18;;;;;;;4.10;2.50;;;;;;;5.41;68.56;101430.26;448093;1249;145094;-70
2023/02/12 10:36:37;;;;;;;4.70;3.50;;;;;;;4.96;69.71;101426.65;451019;1250;140765;-69
2023/02/12 10:46:43;;;;;;;4.30;3.50;;;;;;;5.05;70.00;101426.55;450685;1250;206660;-68
2023/02/12 10:56:49;;;;;;;4.50;4.10;;;;;;;5.03;70.47;101423.98;444650;1250;141278;-69
2023/02/12 11:07:02;;;;;;;5.90;5.30;;;;;;;4.80;70.87;101420.92;441425;1250;140557;-69
2023/02/12 11:17:24;;;;;;;9.70;8.00;;;;;;;4.53;70.95;101421.89;438522;1251;141050;-68
2023/02/12 11:27:32;;;;;;;5.70;5.10;;;;;;;4.31;71.07;101418.95;435127;1251;140748;-69
2023/02/12 11:37:42;;;;;;;6.00;5.10;;;;;;;3.91;71.09;101420.83;450464;1250;206179;-69
2023/02/12 11:47:50;;;;;;;7.70;6.90;;;;;;;3.65;71.53;101412.67;451155;1250;141217;-68
2023/02/12 11:58:05;;;;;;;6.00;5.50;;;;;;;3.54;72.00;101419.48;450385;1250;141761;-69
2023/02/12 12:08:16;;;;;;;3.60;2.90;;;;;;;3.41;72.32;101419.55;446338;1250;141817;-68
2023/02/12 12:29:01;;;;;;;4.40;3.10;;;;;;;3.39;72.85;101414.55;450639;1250;208567;-68
2023/02/12 12:39:21;;;;;;;4.50;3.60;;;;;;;3.32;72.87;101415.27;448049;1250;141642;-67
2023/02/12 12:49:52;;;;;;;6.50;4.10;;;;;;;3.11;72.85;101419.34;450308;1249;140942;-67
2023/02/12 13:00:08;;;;;;;4.20;3.80;;;;;;;2.99;73.84;101411.59;451014;1253;142227;-67
2023/02/12 13:10:26;;;;;;;6.10;3.50;;;;;;;3.20;74.12;101399.05;443894;1250;140463;-68
2023/02/12 13:20:41;;;;;;;3.90;3.00;;;;;;;3.20;74.13;101406.50;451162;1250;142394;-69
2023/02/12 13:30:52;;;;;;;3.50;2.60;;;;;;;3.21;74.67;101393.33;450420;1250;142475;-69
2023/02/12 13:41:05;;;;;;;5.50;3.20;;;;;;;3.10;74.94;101397.02;451090;1250;141450;-68
2023/02/12 13:51:21;;;;;;;5.10;2.70;;;;;;;3.07;75.70;101395.99;450955;1250;141672;-68
2023/02/12 14:01:43;;;;;;;5.10;3.50;;;;;;;3.12;76.20;101394.59;450258;1250;141980;-68
2023/02/12 14:11:53;;;;;;;5.80;3.50;;;;;;;3.07;76.72;101391.49;451009;1250;143250;-68
2023/02/12 14:21:59;;;;;;;6.90;3.50;;;;;;;3.03;77.45;101390.29;450266;1249;141577;-68
2023/02/12 14:32:45;;;;;;;4.90;4.20;;;;;;;2.93;78.01;101394.99;451069;1250;142478;-68
2023/02/12 14:42:57;;;;;;;5.60;3.90;;;;;;;2.79;78.48;101392.27;450331;1250;143136;-67
2023/02/12 14:53:26;;;;;;;9.00;5.50;;;;;;;2.66;78.85;101384.70;450990;1250;142153;-68
2023/02/12 15:03:41;;;;;;;10.10;6.30;;;;;;;2.31;80.03;101393.04;450795;1249;142305;-69
2023/02/12 15:13:54;;;;;;;11.10;6.10;;;;;;;2.01;81.45;101401.52;450801;1251;210844;-67
2023/02/12 15:24:04;;;;;;;12.60;7.00;;;;;;;1.84;81.88;101401.16;451066;1251;142429;-67
2023/02/12 15:34:20;;;;;;;8.80;7.30;;;;;;;1.77;82.71;101397.00;450287;1250;142206;-68
2023/02/12 15:44:29;;;;;;;11.20;7.90;;;;;;;1.66;83.03;101388.35;451057;1250;142027;-67
2023/02/12 15:54:35;;;;;;;15.30;9.80;;;;;;;1.27;83.46;101388.75;450274;1251;142818;-68
2023/02/12 16:04:43;;;;;;;16.50;9.80;;;;;;;1.11;84.48;101404.92;450359;1250;141948;-67
2023/02/12 16:14:52;;;;;;;20.50;9.60;;;;;;;1.16;85.12;101401.49;445448;1249;141871;-67
2023/02/12 16:25:00;;;;;;;28.40;17.00;;;;;;;1.13;85.52;101396.47;450065;1250;141942;-68
2023/02/12 16:35:24;;;;;;;29.60;17.90;;;;;;;1.14;85.92;101401.14;450530;1250;142843;-67
2023/02/12 16:45:49;;;;;;;40.70;26.80;;;;;;;1.13;86.58;101403.90;450963;1250;142248;-67
2023/02/12 16:55:55;;;;;;;34.20;18.90;;;;;;;1.16;87.31;101398.56;450631;1250;211096;-68
2023/02/12 17:06:00;;;;;;;;;;;;;;;1.23;88.05;101409.80;450503;1249;142277;-67
2023/02/12 17:16:07;;;;;;;24.50;11.50;;;;;;;1.37;88.65;101416.23;449726;1248;128957;-68
2023/02/12 17:26:16;;;;;;;20.80;12.40;;;;;;;1.50;89.01;101411.96;447925;1251;142766;-68
2023/02/12 17:36:23;;;;;;;28.70;15.80;;;;;;;1.58;89.43;101414.75;443926;1253;142162;-67
2023/02/12 17:46:28;;;;;;;;;;;;;;;1.64;90.25;101405.27;450102;1251;142266;-68
2023/02/12 17:56:34;;;;;;;25.60;14.20;;;;;;;1.76;90.62;101396.48;450993;1251;128318;-67
2023/02/12 18:06:40;;;;;;;19.90;15.10;;;;;;;1.91;91.42;101393.39;449922;1251;143230;-68
2023/02/12 18:16:46;;;;;;;25.30;15.30;;;;;;;2.06;92.65;101389.42;434074;1253;142430;-67
2023/02/12 18:26:52;;;;;;;23.10;14.70;;;;;;;2.16;93.10;101393.05;433947;1253;143242;-68
2023/02/12 18:36:59;;;;;;;30.10;16.10;;;;;;;2.22;94.02;101396.70;438974;1253;142894;-67
2023/02/12 18:47:05;;;;;;;25.50;16.30;;;;;;;2.26;94.36;101397.02;450553;1249;142085;-68
2023/02/12 18:57:11;;;;;;;60.20;30.40;;;;;;;2.31;94.75;101392.54;435745;1254;142047;-67
2023/02/12 19:07:17;;;;;;;25.50;15.10;;;;;;;2.31;95.22;101384.92;433554;1253;141810;-68
2023/02/12 19:17:23;;;;;;;24.40;15.30;;;;;;;2.27;95.73;101380.95;437464;1251;144375;-68
2023/02/12 19:27:30;;;;;;;23.10;17.10;;;;;;;2.25;96.32;101376.63;450821;1250;142677;-68
2023/02/12 19:37:36;;;;;;;20.00;14.30;;;;;;;2.28;96.67;101373.35;450377;1250;197814;-68
2023/02/12 19:47:42;;;;;;;23.00;15.20;;;;;;;2.33;96.96;101368.50;450765;1250;142049;-68
2023/02/12 19:57:48;;;;;;;23.50;14.50;;;;;;;2.35;97.39;101360.20;437687;1250;142448;-67
2023/02/12 20:07:54;;;;;;;24.70;16.00;;;;;;;2.35;97.89;101361.23;436372;1251;141949;-69
2023/02/12 20:18:00;;;;;;;25.40;15.50;;;;;;;2.33;98.14;101365.91;450785;1251;142182;-68
2023/02/12 20:28:06;;;;;;;29.30;17.50;;;;;;;2.36;98.57;101348.61;450131;1250;142330;-67
2023/02/12 20:38:12;;;;;;;24.90;16.40;;;;;;;2.31;98.59;101339.81;441914;1250;141436;-67
2023/02/12 20:48:19;;;;;;;26.60;16.10;;;;;;;2.35;98.87;101337.91;434603;1251;142263;-67
2023/02/12 20:58:25;;;;;;;25.30;14.70;;;;;;;2.38;99.45;101342.39;450087;1251;142501;-67
2023/02/12 21:08:32;;;;;;;33.30;18.70;;;;;;;2.42;99.53;101344.46;440103;1251;142569;-67
2023/02/12 21:18:38;;;;;;;31.70;19.00;;;;;;;2.43;99.73;101340.14;448438;1250;163733;-67
2023/02/12 21:28:45;;;;;;;27.90;18.00;;;;;;;2.45;100.00;101345.67;445594;1248;142057;-68
2023/02/12 21:38:52;;;;;;;30.30;15.20;;;;;;;2.47;100.00;101337.70;450976;1250;142279;-68
2023/02/12 21:48:58;;;;;;;;;;;;;;;2.51;100.00;101330.61;446106;1250;143839;-67
2023/02/12 21:59:04;;;;;;;27.50;15.40;;;;;;;2.54;100.00;101324.73;450076;1250;129330;-67
2023/02/12 22:09:12;;;;;;;27.90;14.10;;;;;;;2.62;100.00;101325.57;450973;1249;142267;-66
2023/02/12 22:19:18;;;;;;;21.70;14.20;;;;;;;2.72;100.00;101326.05;441235;1250;142103;-66
2023/02/12 22:29:25;;;;;;;23.60;13.80;;;;;;;2.78;100.00;101324.13;442508;1250;142361;-67
2023/02/12 22:39:31;;;;;;;23.00;14.20;;;;;;;2.86;100.00;101323.23;436406;1250;141693;-68
2023/02/12 22:49:37;;;;;;;26.00;13.40;;;;;;;2.90;100.00;101318.72;440624;1251;210433;-67
2023/02/12 22:59:43;;;;;;;22.80;12.80;;;;;;;2.97;100.00;101318.52;442832;1249;141905;-67
2023/02/12 23:09:49;;;;;;;23.70;13.80;;;;;;;3.01;100.00;101313.48;448905;1249;142141;-67
2023/02/12 23:19:55;;;;;;;28.80;15.30;;;;;;;3.06;100.00;101315.00;451174;1249;142692;-66
2023/02/12 23:30:01;;;;;;;27.80;15.20;;;;;;;3.11;100.00;101301.83;450902;1250;142020;-67
2023/02/12 23:40:09;;;;;;;27.80;16.50;;;;;;;3.08;100.00;101295.63;450291;1250;142191;-67
2023/02/12 23:50:15;;;;;;;23.70;16.70;;;;;;;3.10;100.00;101288.52;450861;1249;144152;-67
